sensor_id;sensor_type;location;lat;lon;timestamp;pressure;altitude;pressure_sealevel;temperature;humidity
49102;BME280;34913;47.520;19.186;2023-02-03T00:00:05;100467.34;;;2.28;80.76
49102;BME280;34913;47.520;19.186;2023-02-03T00:02:33;100456.53;;;2.15;81.18
49102;BME280;34913;47.520;19.186;2023-02-03T00:04:59;100457.78;;;2.07;80.74
49102;BME280;34913;47.520;19.186;2023-02-03T00:07:24;100471.22;;;1.98;80.81
49102;BME280;34913;47.520;19.186;2023-02-03T00:09:50;100478.41;;;1.92;80.23
49102;BME280;34913;47.520;19.186;2023-02-03T00:12:15;100494.28;;;1.88;80.25
49102;BME280;34913;47.520;19.186;2023-02-03T00:14:41;100496.28;;;1.81;79.60
49102;BME280;34913;47.520;19.186;2023-02-03T00:17:06;100492.63;;;1.85;79.13
49102;BME280;34913;47.520;19.186;2023-02-03T00:19:32;100491.97;;;2.02;77.21
49102;BME280;34913;47.520;19.186;2023-02-03T00:21:57;100508.53;;;2.03;77.23
49102;BME280;34913;47.520;19.186;2023-02-03T00:24:23;100506.91;;;2.00;76.63
49102;BME280;34913;47.520;19.186;2023-02-03T00:26:48;100506.66;;;1.84;77.58
49102;BME280;34913;47.520;19.186;2023-02-03T00:29:14;100511.97;;;1.81;77.60
49102;BME280;34913;47.520;19.186;2023-02-03T00:31:40;100514.38;;;1.87;77.06
49102;BME280;34913;47.520;19.186;2023-02-03T00:34:05;100506.06;;;2.00;76.67
49102;BME280;34913;47.520;19.186;2023-02-03T00:36:31;100515.53;;;2.02;76.37
49102;BME280;34913;47.520;19.186;2023-02-03T00:38:56;100534.09;;;1.96;76.48
49102;BME280;34913;47.520;19.186;2023-02-03T00:41:22;100533.25;;;1.95;76.57
49102;BME280;34913;47.520;19.186;2023-02-03T00:43:53;100535.28;;;2.11;75.90
49102;BME280;34913;47.520;19.186;2023-02-03T00:46:18;100531.34;;;2.22;74.95
49102;BME280;34913;47.520;19.186;2023-02-03T00:48:44;100539.09;;;2.02;75.26
49102;BME280;34913;47.520;19.186;2023-02-03T00:51:09;100536.34;;;2.05;75.14
49102;BME280;34913;47.520;19.186;2023-02-03T00:53:35;100537.09;;;2.09;74.88
49102;BME280;34913;47.520;19.186;2023-02-03T00:56:00;100537.63;;;1.95;74.50
49102;BME280;34913;47.520;19.186;2023-02-03T00:58:26;100541.09;;;1.95;74.88
49102;BME280;34913;47.520;19.186;2023-02-03T01:00:53;100547.25;;;1.94;74.14
49102;BME280;34913;47.520;19.186;2023-02-03T01:03:19;100543.66;;;1.97;73.41
49102;BME280;34913;47.520;19.186;2023-02-03T01:05:44;100549.25;;;1.88;73.96
49102;BME280;34913;47.520;19.186;2023-02-03T01:08:09;100550.09;;;1.88;74.26
49102;BME280;34913;47.520;19.186;2023-02-03T01:10:36;100560.34;;;1.94;73.90
49102;BME280;34913;47.520;19.186;2023-02-03T01:13:02;100553.53;;;1.90;73.98
49102;BME280;34913;47.520;19.186;2023-02-03T01:15:27;100553.81;;;1.83;72.96
49102;BME280;34913;47.520;19.186;2023-02-03T01:17:53;100553.25;;;1.98;73.08
49102;BME280;34913;47.520;19.186;2023-02-03T01:20:18;100555.53;;;1.84;73.08
49102;BME280;34913;47.520;19.186;2023-02-03T01:22:45;100554.47;;;1.88;73.31
49102;BME280;34913;47.520;19.186;2023-02-03T01:25:11;100546.19;;;1.77;72.88
49102;BME280;34913;47.520;19.186;2023-02-03T01:27:36;100558.38;;;1.78;72.09
49102;BME280;34913;47.520;19.186;2023-02-03T01:30:02;100556.72;;;1.75;71.22
49102;BME280;34913;47.520;19.186;2023-02-03T01:32:28;100554.97;;;1.76;70.53
49102;BME280;34913;47.520;19.186;2023-02-03T01:34:53;100558.25;;;1.81;70.40
49102;BME280;34913;47.520;19.186;2023-02-03T01:37:19;100567.34;;;1.71;70.41
49102;BME280;34913;47.520;19.186;2023-02-03T01:39:44;100560.56;;;1.65;70.50
49102;BME280;34913;47.520;19.186;2023-02-03T01:42:14;100566.34;;;1.51;69.95
49102;BME280;34913;47.520;19.186;2023-02-03T01:44:40;100569.41;;;1.62;70.32
49102;BME280;34913;47.520;19.186;2023-02-03T01:52:41;100575.91;;;1.76;68.38
49102;BME280;34913;47.520;19.186;2023-02-03T01:55:10;100576.97;;;1.70;68.70
49102;BME280;34913;47.520;19.186;2023-02-03T01:57:43;100575.47;;;1.63;68.02
49102;BME280;34913;47.520;19.186;2023-02-03T02:00:11;100583.38;;;1.61;68.68
49102;BME280;34913;47.520;19.186;2023-02-03T02:02:36;100583.81;;;1.49;68.29
49102;BME280;34913;47.520;19.186;2023-02-03T02:05:06;100579.41;;;1.51;68.71
49102;BME280;34913;47.520;19.186;2023-02-03T02:07:35;100582.03;;;1.51;68.57
49102;BME280;34913;47.520;19.186;2023-02-03T02:10:03;100582.97;;;1.49;68.18
49102;BME280;34913;47.520;19.186;2023-02-03T02:12:29;100578.84;;;1.43;67.32
49102;BME280;34913;47.520;19.186;2023-02-03T02:14:54;100578.50;;;1.52;67.43
49102;BME280;34913;47.520;19.186;2023-02-03T02:17:44;100574.22;;;1.50;66.84
49102;BME280;34913;47.520;19.186;2023-02-03T02:20:44;100568.75;;;1.56;66.55
49102;BME280;34913;47.520;19.186;2023-02-03T02:39:42;100564.84;;;1.44;66.01
49102;BME280;34913;47.520;19.186;2023-02-03T02:42:30;100575.13;;;1.49;66.09
49102;BME280;34913;47.520;19.186;2023-02-03T02:45:06;100578.22;;;1.60;65.50
49102;BME280;34913;47.520;19.186;2023-02-03T02:47:32;100576.28;;;1.65;64.78
49102;BME280;34913;47.520;19.186;2023-02-03T02:50:04;100581.13;;;1.52;64.87
49102;BME280;34913;47.520;19.186;2023-02-03T02:52:33;100586.41;;;1.51;65.05
49102;BME280;34913;47.520;19.186;2023-02-03T02:55:06;100589.13;;;1.71;64.39
49102;BME280;34913;47.520;19.186;2023-02-03T02:57:33;100586.91;;;1.60;64.00
49102;BME280;34913;47.520;19.186;2023-02-03T03:00:01;100583.91;;;1.71;64.08
49102;BME280;34913;47.520;19.186;2023-02-03T03:02:35;100578.16;;;1.61;64.63
49102;BME280;34913;47.520;19.186;2023-02-03T03:05:05;100576.66;;;1.54;64.37
49102;BME280;34913;47.520;19.186;2023-02-03T03:07:37;100577.38;;;1.59;64.27
49102;BME280;34913;47.520;19.186;2023-02-03T03:10:08;100587.41;;;1.47;64.10
49102;BME280;34913;47.520;19.186;2023-02-03T03:12:42;100582.88;;;1.52;64.35
49102;BME280;34913;47.520;19.186;2023-02-03T03:15:14;100579.22;;;1.56;64.50
49102;BME280;34913;47.520;19.186;2023-02-03T03:17:46;100584.19;;;1.63;63.96
49102;BME280;34913;47.520;19.186;2023-02-03T03:20:23;100574.34;;;1.47;64.17
49102;BME280;34913;47.520;19.186;2023-02-03T03:22:55;100563.16;;;1.42;63.74
49102;BME280;34913;47.520;19.186;2023-02-03T03:26:23;100561.66;;;1.36;64.18
49102;BME280;34913;47.520;19.186;2023-02-03T03:28:24;100565.13;;;1.36;64.53
49102;BME280;34913;47.520;19.186;2023-02-03T03:30:52;100564.84;;;1.44;64.45
49102;BME280;34913;47.520;19.186;2023-02-03T03:33:19;100572.25;;;1.31;64.68
49102;BME280;34913;47.520;19.186;2023-02-03T03:35:52;100574.22;;;1.25;64.78
49102;BME280;34913;47.520;19.186;2023-02-03T03:38:29;100575.72;;;1.32;64.97
49102;BME280;34913;47.520;19.186;2023-02-03T03:41:02;100572.69;;;1.44;66.09
49102;BME280;34913;47.520;19.186;2023-02-03T03:43:34;100569.50;;;1.36;66.92
49102;BME280;34913;47.520;19.186;2023-02-03T03:46:13;100572.16;;;1.09;67.82
49102;BME280;34913;47.520;19.186;2023-02-03T03:51:17;100578.97;;;0.89;68.66
49102;BME280;34913;47.520;19.186;2023-02-03T03:53:44;100580.22;;;0.77;69.57
49102;BME280;34913;47.520;19.186;2023-02-03T03:56:16;100580.34;;;0.74;69.48
49102;BME280;34913;47.520;19.186;2023-02-03T03:58:45;100586.31;;;0.77;69.08
49102;BME280;34913;47.520;19.186;2023-02-03T04:01:14;100589.09;;;0.73;69.36
49102;BME280;34913;47.520;19.186;2023-02-03T04:03:53;100597.84;;;0.70;69.23
49102;BME280;34913;47.520;19.186;2023-02-03T04:06:20;100595.50;;;0.63;69.05
49102;BME280;34913;47.520;19.186;2023-02-03T04:08:45;100595.53;;;0.61;68.13
49102;BME280;34913;47.520;19.186;2023-02-03T04:11:11;100596.22;;;0.68;68.84
49102;BME280;34913;47.520;19.186;2023-02-03T04:13:56;100598.81;;;0.68;68.36
49102;BME280;34913;47.520;19.186;2023-02-03T04:16:21;100594.44;;;0.68;68.60
49102;BME280;34913;47.520;19.186;2023-02-03T04:18:47;100588.50;;;0.63;68.50
49102;BME280;34913;47.520;19.186;2023-02-03T04:21:12;100583.44;;;0.59;67.78
49102;BME280;34913;47.520;19.186;2023-02-03T04:23:37;100602.28;;;0.68;68.05
49102;BME280;34913;47.520;19.186;2023-02-03T04:26:03;100596.00;;;0.74;67.71
49102;BME280;34913;47.520;19.186;2023-02-03T04:28:28;100595.97;;;0.75;67.34
49102;BME280;34913;47.520;19.186;2023-02-03T04:30:54;100599.31;;;0.79;67.38
49102;BME280;34913;47.520;19.186;2023-02-03T04:33:19;100603.59;;;0.81;66.90
49102;BME280;34913;47.520;19.186;2023-02-03T04:35:45;100601.59;;;0.90;66.76
49102;BME280;34913;47.520;19.186;2023-02-03T04:38:10;100592.94;;;0.88;66.83
49102;BME280;34913;47.520;19.186;2023-02-03T04:40:36;100600.75;;;0.89;67.08
49102;BME280;34913;47.520;19.186;2023-02-03T04:43:06;100597.41;;;0.84;66.91
49102;BME280;34913;47.520;19.186;2023-02-03T04:45:31;100591.28;;;0.85;66.83
49102;BME280;34913;47.520;19.186;2023-02-03T04:47:57;100601.06;;;0.78;67.30
49102;BME280;34913;47.520;19.186;2023-02-03T04:50:22;100601.13;;;0.77;66.93
49102;BME280;34913;47.520;19.186;2023-02-03T04:52:48;100592.69;;;0.69;67.57
49102;BME280;34913;47.520;19.186;2023-02-03T04:55:13;100585.88;;;0.63;67.14
49102;BME280;34913;47.520;19.186;2023-02-03T04:57:39;100580.78;;;0.60;66.93
49102;BME280;34913;47.520;19.186;2023-02-03T05:00:05;100580.78;;;0.60;66.58
49102;BME280;34913;47.520;19.186;2023-02-03T05:02:30;100578.97;;;0.62;65.76
49102;BME280;34913;47.520;19.186;2023-02-03T05:04:55;100577.88;;;0.69;66.65
49102;BME280;34913;47.520;19.186;2023-02-03T05:07:21;100583.16;;;0.68;66.13
49102;BME280;34913;47.520;19.186;2023-02-03T05:09:46;100576.28;;;0.65;66.44
49102;BME280;34913;47.520;19.186;2023-02-03T05:12:12;100568.38;;;0.67;66.79
49102;BME280;34913;47.520;19.186;2023-02-03T05:14:37;100571.53;;;0.76;66.27
49102;BME280;34913;47.520;19.186;2023-02-03T05:17:03;100567.16;;;0.77;65.88
49102;BME280;34913;47.520;19.186;2023-02-03T05:19:28;100567.09;;;0.78;66.36
49102;BME280;34913;47.520;19.186;2023-02-03T05:21:53;100569.72;;;0.78;65.95
49102;BME280;34913;47.520;19.186;2023-02-03T05:24:19;100569.81;;;0.75;65.88
49102;BME280;34913;47.520;19.186;2023-02-03T05:26:44;100566.41;;;0.73;65.68
49102;BME280;34913;47.520;19.186;2023-02-03T05:29:10;100558.63;;;0.72;65.86
49102;BME280;34913;47.520;19.186;2023-02-03T05:31:36;100569.81;;;0.75;65.24
49102;BME280;34913;47.520;19.186;2023-02-03T05:34:01;100561.19;;;0.73;64.88
49102;BME280;34913;47.520;19.186;2023-02-03T05:36:27;100578.22;;;0.85;65.38
49102;BME280;34913;47.520;19.186;2023-02-03T05:38:52;100575.41;;;0.91;65.92
49102;BME280;34913;47.520;19.186;2023-02-03T05:41:18;100587.66;;;0.89;65.04
49102;BME280;34913;47.520;19.186;2023-02-03T05:44:02;100582.94;;;1.00;64.74
49102;BME280;34913;47.520;19.186;2023-02-03T05:46:27;100585.59;;;1.24;63.63
49102;BME280;34913;47.520;19.186;2023-02-03T05:48:53;100579.31;;;1.29;63.48
49102;BME280;34913;47.520;19.186;2023-02-03T05:51:18;100599.84;;;1.40;63.16
49102;BME280;34913;47.520;19.186;2023-02-03T05:53:43;100594.56;;;1.42;62.72
49102;BME280;34913;47.520;19.186;2023-02-03T05:56:09;100600.44;;;1.23;64.49
49102;BME280;34913;47.520;19.186;2023-02-03T05:58:34;100603.19;;;1.20;64.41
49102;BME280;34913;47.520;19.186;2023-02-03T06:01:00;100602.59;;;1.12;65.13
49102;BME280;34913;47.520;19.186;2023-02-03T06:03:25;100592.47;;;1.01;66.47
49102;BME280;34913;47.520;19.186;2023-02-03T06:05:51;100597.88;;;0.97;67.43
49102;BME280;34913;47.520;19.186;2023-02-03T06:08:16;100600.47;;;0.97;67.59
49102;BME280;34913;47.520;19.186;2023-02-03T06:10:41;100593.19;;;1.06;65.87
49102;BME280;34913;47.520;19.186;2023-02-03T06:13:12;100585.66;;;1.22;63.88
49102;BME280;34913;47.520;19.186;2023-02-03T06:15:38;100582.91;;;1.27;63.33
49102;BME280;34913;47.520;19.186;2023-02-03T06:18:04;100580.03;;;1.34;63.42
49102;BME280;34913;47.520;19.186;2023-02-03T06:20:30;100581.59;;;1.38;63.39
49102;BME280;34913;47.520;19.186;2023-02-03T06:22:55;100588.38;;;1.44;63.64
49102;BME280;34913;47.520;19.186;2023-02-03T06:25:21;100590.88;;;1.47;63.27
49102;BME280;34913;47.520;19.186;2023-02-03T06:27:47;100601.91;;;1.55;63.67
49102;BME280;34913;47.520;19.186;2023-02-03T06:30:12;100593.84;;;1.61;63.42
49102;BME280;34913;47.520;19.186;2023-02-03T06:32:38;100612.22;;;1.60;63.81
49102;BME280;34913;47.520;19.186;2023-02-03T06:35:03;100605.06;;;1.65;63.31
49102;BME280;34913;47.520;19.186;2023-02-03T06:37:29;100606.88;;;1.63;63.65
49102;BME280;34913;47.520;19.186;2023-02-03T06:39:54;100599.94;;;1.62;63.92
49102;BME280;34913;47.520;19.186;2023-02-03T06:42:20;100608.53;;;1.65;63.94
49102;BME280;34913;47.520;19.186;2023-02-03T06:44:45;100604.75;;;1.74;63.38
49102;BME280;34913;47.520;19.186;2023-02-03T06:47:11;100609.78;;;1.79;63.53
49102;BME280;34913;47.520;19.186;2023-02-03T06:49:36;100610.28;;;1.90;63.39
49102;BME280;34913;47.520;19.186;2023-02-03T06:52:02;100606.09;;;1.84;63.92
49102;BME280;34913;47.520;19.186;2023-02-03T06:54:27;100600.66;;;1.90;63.00
49102;BME280;34913;47.520;19.186;2023-02-03T06:56:52;100597.06;;;1.93;63.07
49102;BME280;34913;47.520;19.186;2023-02-03T06:59:18;100612.06;;;1.88;64.09
49102;BME280;34913;47.520;19.186;2023-02-03T07:01:43;100598.97;;;1.88;63.88
49102;BME280;34913;47.520;19.186;2023-02-03T07:04:09;100605.34;;;1.81;64.60
49102;BME280;34913;47.520;19.186;2023-02-03T07:06:34;100600.81;;;1.86;65.49
49102;BME280;34913;47.520;19.186;2023-02-03T07:09:01;100601.66;;;1.86;64.88
49102;BME280;34913;47.520;19.186;2023-02-03T07:11:27;100595.72;;;1.81;65.02
49102;BME280;34913;47.520;19.186;2023-02-03T07:13:53;100594.38;;;1.94;64.71
49102;BME280;34913;47.520;19.186;2023-02-03T07:16:19;100599.16;;;1.83;64.73
49102;BME280;34913;47.520;19.186;2023-02-03T07:18:44;100601.53;;;1.89;64.92
49102;BME280;34913;47.520;19.186;2023-02-03T07:21:11;100599.38;;;2.01;64.17
49102;BME280;34913;47.520;19.186;2023-02-03T07:23:36;100596.84;;;1.99;64.76
49102;BME280;34913;47.520;19.186;2023-02-03T07:26:03;100590.75;;;1.99;64.57
49102;BME280;34913;47.520;19.186;2023-02-03T07:28:30;100593.88;;;1.85;64.37
49102;BME280;34913;47.520;19.186;2023-02-03T07:30:56;100593.22;;;2.02;63.36
49102;BME280;34913;47.520;19.186;2023-02-03T07:33:21;100590.50;;;2.05;63.48
49102;BME280;34913;47.520;19.186;2023-02-03T07:35:53;100599.44;;;1.99;64.58
49102;BME280;34913;47.520;19.186;2023-02-03T07:38:20;100604.22;;;1.88;63.86
49102;BME280;34913;47.520;19.186;2023-02-03T07:40:45;100598.81;;;1.92;64.11
49102;BME280;34913;47.520;19.186;2023-02-03T07:43:11;100594.31;;;1.96;63.88
49102;BME280;34913;47.520;19.186;2023-02-03T07:45:36;100606.75;;;2.13;63.25
49102;BME280;34913;47.520;19.186;2023-02-03T07:48:02;100606.72;;;2.14;63.06
49102;BME280;34913;47.520;19.186;2023-02-03T07:50:28;100608.38;;;2.17;62.54
49102;BME280;34913;47.520;19.186;2023-02-03T07:52:53;100610.06;;;2.18;62.93
49102;BME280;34913;47.520;19.186;2023-02-03T07:55:20;100616.47;;;2.33;62.20
49102;BME280;34913;47.520;19.186;2023-02-03T07:57:46;100615.75;;;2.51;61.26
49102;BME280;34913;47.520;19.186;2023-02-03T08:00:13;100619.84;;;2.58;60.64
49102;BME280;34913;47.520;19.186;2023-02-03T08:02:43;100610.59;;;2.49;60.30
49102;BME280;34913;47.520;19.186;2023-02-03T08:05:09;100613.19;;;2.49;59.67
49102;BME280;34913;47.520;19.186;2023-02-03T08:07:35;100609.78;;;2.47;59.17
49102;BME280;34913;47.520;19.186;2023-02-03T08:10:01;100615.34;;;2.40;58.42
49102;BME280;34913;47.520;19.186;2023-02-03T08:12:27;100612.78;;;2.38;59.54
49102;BME280;34913;47.520;19.186;2023-02-03T08:14:52;100622.81;;;2.49;58.12
49102;BME280;34913;47.520;19.186;2023-02-03T08:17:17;100619.34;;;2.48;58.71
49102;BME280;34913;47.520;19.186;2023-02-03T08:19:43;100620.34;;;2.46;60.15
49102;BME280;34913;47.520;19.186;2023-02-03T08:22:09;100613.94;;;2.53;57.19
49102;BME280;34913;47.520;19.186;2023-02-03T08:24:43;100622.22;;;2.64;56.54
49102;BME280;34913;47.520;19.186;2023-02-03T08:27:21;100615.94;;;2.68;57.43
49102;BME280;34913;47.520;19.186;2023-02-03T08:29:47;100618.00;;;2.60;57.73
49102;BME280;34913;47.520;19.186;2023-02-03T08:32:15;100617.91;;;2.63;57.24
49102;BME280;34913;47.520;19.186;2023-02-03T08:34:42;100629.72;;;2.51;56.39
49102;BME280;34913;47.520;19.186;2023-02-03T08:37:09;100624.16;;;2.59;56.28
49102;BME280;34913;47.520;19.186;2023-02-03T08:39:35;100628.16;;;2.69;55.29
49102;BME280;34913;47.520;19.186;2023-02-03T08:42:01;100633.41;;;2.68;57.38
49102;BME280;34913;47.520;19.186;2023-02-03T08:44:29;100636.03;;;2.68;57.39
49102;BME280;34913;47.520;19.186;2023-02-03T08:46:55;100634.34;;;2.67;56.13
49102;BME280;34913;47.520;19.186;2023-02-03T08:49:22;100641.66;;;2.59;56.61
49102;BME280;34913;47.520;19.186;2023-02-03T08:51:48;100644.56;;;2.51;56.30
49102;BME280;34913;47.520;19.186;2023-02-03T08:54:14;100635.56;;;2.58;58.09
49102;BME280;34913;47.520;19.186;2023-02-03T08:56:40;100638.38;;;2.75;56.07
49102;BME280;34913;47.520;19.186;2023-02-03T08:59:06;100637.09;;;2.86;55.66
49102;BME280;34913;47.520;19.186;2023-02-03T09:01:31;100635.56;;;2.80;57.65
49102;BME280;34913;47.520;19.186;2023-02-03T09:03:56;100645.19;;;3.01;58.31
49102;BME280;34913;47.520;19.186;2023-02-03T09:06:23;100644.03;;;2.87;61.17
49102;BME280;34913;47.520;19.186;2023-02-03T09:08:48;100635.31;;;2.86;61.26
49102;BME280;34913;47.520;19.186;2023-02-03T09:11:16;100639.88;;;2.81;62.89
49102;BME280;34913;47.520;19.186;2023-02-03T09:13:42;100631.31;;;2.77;64.14
49102;BME280;34913;47.520;19.186;2023-02-03T09:16:13;100626.84;;;2.79;65.25
49102;BME280;34913;47.520;19.186;2023-02-03T09:18:41;100627.47;;;2.86;64.66
49102;BME280;34913;47.520;19.186;2023-02-03T09:21:08;100630.19;;;2.83;66.25
49102;BME280;34913;47.520;19.186;2023-02-03T09:23:38;100634.59;;;2.83;67.94
49102;BME280;34913;47.520;19.186;2023-02-03T09:26:08;100634.34;;;2.67;68.73
49102;BME280;34913;47.520;19.186;2023-02-03T09:28:35;100626.22;;;2.51;71.75
49102;BME280;34913;47.520;19.186;2023-02-03T09:31:02;100624.19;;;2.37;74.46
49102;BME280;34913;47.520;19.186;2023-02-03T09:33:28;100622.03;;;2.25;77.14
49102;BME280;34913;47.520;19.186;2023-02-03T09:35:55;100621.41;;;2.18;78.36
49102;BME280;34913;47.520;19.186;2023-02-03T09:38:21;100614.13;;;2.03;80.53
49102;BME280;34913;47.520;19.186;2023-02-03T09:46:33;100605.63;;;1.73;86.31
49102;BME280;34913;47.520;19.186;2023-02-03T09:49:28;100596.94;;;1.73;86.70
49102;BME280;34913;47.520;19.186;2023-02-03T09:51:54;100593.03;;;1.84;86.62
49102;BME280;34913;47.520;19.186;2023-02-03T09:56:48;100585.59;;;1.72;87.82
49102;BME280;34913;47.520;19.186;2023-02-03T09:59:20;100577.81;;;1.71;88.43
49102;BME280;34913;47.520;19.186;2023-02-03T10:01:56;100574.50;;;1.65;89.01
49102;BME280;34913;47.520;19.186;2023-02-03T10:04:31;100567.06;;;1.55;90.01
49102;BME280;34913;47.520;19.186;2023-02-03T10:17:54;100535.72;;;1.53;93.01
49102;BME280;34913;47.520;19.186;2023-02-03T10:20:25;100521.38;;;1.63;92.10
49102;BME280;34913;47.520;19.186;2023-02-03T10:22:57;100507.22;;;1.69;91.58
49102;BME280;34913;47.520;19.186;2023-02-03T10:25:26;100517.22;;;1.81;91.33
49102;BME280;34913;47.520;19.186;2023-02-03T10:27:59;100507.66;;;1.80;91.20
49102;BME280;34913;47.520;19.186;2023-02-03T10:30:28;100497.47;;;1.73;91.85
49102;BME280;34913;47.520;19.186;2023-02-03T10:33:11;100493.72;;;1.80;91.98
49102;BME280;34913;47.520;19.186;2023-02-03T10:38:53;100484.84;;;1.84;92.48
49102;BME280;34913;47.520;19.186;2023-02-03T10:41:22;100482.78;;;1.92;92.18
49102;BME280;34913;47.520;19.186;2023-02-03T10:43:49;100467.09;;;1.92;92.43
49102;BME280;34913;47.520;19.186;2023-02-03T10:46:36;100467.88;;;1.94;92.57
49102;BME280;34913;47.520;19.186;2023-02-03T10:49:02;100455.56;;;1.96;92.78
49102;BME280;34913;47.520;19.186;2023-02-03T10:51:36;100454.06;;;1.90;93.67
49102;BME280;34913;47.520;19.186;2023-02-03T10:54:04;100455.19;;;2.05;94.76
49102;BME280;34913;47.520;19.186;2023-02-03T10:56:31;100445.19;;;2.57;100.00
49102;BME280;34913;47.520;19.186;2023-02-03T10:58:59;100441.44;;;2.42;94.07
49102;BME280;34913;47.520;19.186;2023-02-03T11:01:43;100439.22;;;2.33;92.95
49102;BME280;34913;47.520;19.186;2023-02-03T11:06:59;100426.47;;;2.04;92.67
49102;BME280;34913;47.520;19.186;2023-02-03T11:09:37;100417.81;;;2.02;92.67
49102;BME280;34913;47.520;19.186;2023-02-03T11:12:14;100414.72;;;1.92;93.07
49102;BME280;34913;47.520;19.186;2023-02-03T11:14:43;100405.22;;;1.89;93.44
49102;BME280;34913;47.520;19.186;2023-02-03T11:17:22;100401.81;;;1.87;93.64
49102;BME280;34913;47.520;19.186;2023-02-03T11:19:56;100391.34;;;1.87;93.60
49102;BME280;34913;47.520;19.186;2023-02-03T11:22:34;100391.03;;;1.95;93.99
49102;BME280;34913;47.520;19.186;2023-02-03T11:25:02;100379.63;;;1.98;94.53
49102;BME280;34913;47.520;19.186;2023-02-03T11:27:30;100381.94;;;1.83;95.23
49102;BME280;34913;47.520;19.186;2023-02-03T11:30:23;100375.00;;;1.82;95.65
49102;BME280;34913;47.520;19.186;2023-02-03T11:32:50;100365.50;;;1.80;95.49
49102;BME280;34913;47.520;19.186;2023-02-03T11:35:17;100367.31;;;1.78;95.47
49102;BME280;34913;47.520;19.186;2023-02-03T11:37:46;100358.69;;;1.76;95.54
49102;BME280;34913;47.520;19.186;2023-02-03T11:40:23;100355.41;;;1.71;96.10
49102;BME280;34913;47.520;19.186;2023-02-03T11:45:27;100343.72;;;1.57;96.83
49102;BME280;34913;47.520;19.186;2023-02-03T11:48:16;100336.69;;;1.59;96.77
49102;BME280;34913;47.520;19.186;2023-02-03T11:51:08;100324.50;;;1.58;96.51
49102;BME280;34913;47.520;19.186;2023-02-03T11:53:42;100316.22;;;1.47;97.24
49102;BME280;34913;47.520;19.186;2023-02-03T11:59:35;100296.16;;;1.48;97.72
49102;BME280;34913;47.520;19.186;2023-02-03T12:02:22;100285.81;;;1.45;97.63
49102;BME280;34913;47.520;19.186;2023-02-03T12:08:14;100268.47;;;1.42;98.43
49102;BME280;34913;47.520;19.186;2023-02-03T12:10:56;100273.91;;;1.37;98.42
49102;BME280;34913;47.520;19.186;2023-02-03T12:25:03;100231.50;;;1.51;97.96
49102;BME280;34913;47.520;19.186;2023-02-03T12:30:31;100217.75;;;1.46;98.26
49102;BME280;34913;47.520;19.186;2023-02-03T12:33:05;100199.25;;;1.51;97.92
49102;BME280;34913;47.520;19.186;2023-02-03T12:38:13;100179.91;;;1.34;98.26
49102;BME280;34913;47.520;19.186;2023-02-03T12:40:49;100169.47;;;1.33;98.70
49102;BME280;34913;47.520;19.186;2023-02-03T12:46:29;100159.84;;;1.35;98.37
49102;BME280;34913;47.520;19.186;2023-02-03T12:49:18;100143.16;;;1.37;98.21
49102;BME280;34913;47.520;19.186;2023-02-03T12:51:54;100146.53;;;1.39;98.48
49102;BME280;34913;47.520;19.186;2023-02-03T12:57:55;100126.69;;;1.35;100.00
49102;BME280;34913;47.520;19.186;2023-02-03T13:00:50;100116.06;;;1.38;100.00
49102;BME280;34913;47.520;19.186;2023-02-03T13:03:38;100120.31;;;1.41;100.00
49102;BME280;34913;47.520;19.186;2023-02-03T13:06:11;100106.13;;;1.47;100.00
49102;BME280;34913;47.520;19.186;2023-02-03T13:09:02;100105.13;;;1.49;99.89
49102;BME280;34913;47.520;19.186;2023-02-03T13:11:32;100087.97;;;1.44;99.53
49102;BME280;34913;47.520;19.186;2023-02-03T13:14:29;100086.28;;;1.43;99.93
49102;BME280;34913;47.520;19.186;2023-02-03T13:17:01;100080.81;;;1.47;99.82
49102;BME280;34913;47.520;19.186;2023-02-03T13:19:44;100080.50;;;1.55;99.68
49102;BME280;34913;47.520;19.186;2023-02-03T13:22:12;100066.84;;;1.48;100.00
49102;BME280;34913;47.520;19.186;2023-02-03T13:24:42;100054.47;;;1.52;99.54
49102;BME280;34913;47.520;19.186;2023-02-03T13:38:41;100039.25;;;1.41;100.00
49102;BME280;34913;47.520;19.186;2023-02-03T13:41:39;100035.28;;;1.32;100.00
49102;BME280;34913;47.520;19.186;2023-02-03T13:44:12;100024.19;;;1.27;100.00
49102;BME280;34913;47.520;19.186;2023-02-03T13:46:40;100019.81;;;1.28;100.00
49102;BME280;34913;47.520;19.186;2023-02-03T13:49:07;100016.28;;;1.29;100.00
49102;BME280;34913;47.520;19.186;2023-02-03T13:51:42;100007.94;;;1.39;100.00
49102;BME280;34913;47.520;19.186;2023-02-03T13:54:41;100002.72;;;1.39;100.00
49102;BME280;34913;47.520;19.186;2023-02-03T13:57:22;99990.34;;;1.43;100.00
49102;BME280;34913;47.520;19.186;2023-02-03T13:59:50;99995.66;;;1.60;100.00
49102;BME280;34913;47.520;19.186;2023-02-03T14:04:56;99973.63;;;1.66;100.00
49102;BME280;34913;47.520;19.186;2023-02-03T14:07:36;99981.38;;;1.67;100.00
49102;BME280;34913;47.520;19.186;2023-02-03T14:12:55;99968.28;;;1.86;100.00
49102;BME280;34913;47.520;19.186;2023-02-03T14:20:40;99959.06;;;1.96;100.00
49102;BME280;34913;47.520;19.186;2023-02-03T14:23:15;99947.81;;;1.94;100.00
49102;BME280;34913;47.520;19.186;2023-02-03T14:25:49;99945.09;;;1.98;100.00
49102;BME280;34913;47.520;19.186;2023-02-03T14:28:39;99946.88;;;2.14;100.00
49102;BME280;34913;47.520;19.186;2023-02-03T14:31:07;99940.16;;;2.09;100.00
49102;BME280;34913;47.520;19.186;2023-02-03T14:33:49;99934.38;;;2.02;100.00
49102;BME280;34913;47.520;19.186;2023-02-03T14:36:38;99929.78;;;2.07;100.00
49102;BME280;34913;47.520;19.186;2023-02-03T14:41:55;99934.91;;;2.09;100.00
49102;BME280;34913;47.520;19.186;2023-02-03T14:58:06;99892.09;;;2.27;100.00
49102;BME280;34913;47.520;19.186;2023-02-03T15:00:38;99893.81;;;2.28;100.00
49102;BME280;34913;47.520;19.186;2023-02-03T15:05:50;99890.28;;;2.46;100.00